METAR Data
IDs: Format: Raw Decoded Include TAF

Data at: 1614 UTC 03 Dec 2021

KBEA 031555Z AUTO 17005KT 10SM OVC003 20/19 A3009 RMK AO2 T02010193